Hamnavoe — VSTY7 — position and weather

sailwx.info

Track history (hours):
 
Tides and Currents Weather Stations Pressure Air Temp Water Temp Dewpoint Dewpoint Depression Visibility Wind Speed Wind Dir Waves Ship Positions

Hamnavoe

Operator: NorthLink Orkey & Shetland Ferries Ltd

Last reported at 2020-Aug-09 04:24 UTC. Time now 2020-Aug-09 05:27 UTC.
Position N 58°58' W 003°18'.

Length 112 m; draft 4.4 m.

Type: Ship. MMSI: 235449000.

Date/timePositionNaut miles runAvg speedWind from/ knotsBaromVisibWave heightAir tempDewpointWater temp
2020-Aug-09 04:24N 58°58' W 003°18'0 0.0
2020-Aug-08 23:30N 58°58' W 003°18'0 0.0
2020-Aug-08 22:30N 58°58' W 003°18'0 0.0
2020-Aug-08 21:30N 58°58' W 003°18'22 5.6
2020-Aug-08 17:29N 58°37' W 003°32'22 7.6
2020-Aug-08 14:31N 58°58' W 003°18'8 5.1
2020-Aug-08 13:00N 58°52' W 003°28'1610.5
2020-Aug-08 11:30N 58°37' W 003°32'5 9.7
2020-Aug-08 11:00N 58°41' W 003°31'1811.8
2020-Aug-08 09:30N 58°58' W 003°18'1 1.8
2020-Aug-08 09:00N 58°57' W 003°17'1414.4
2020-Aug-08 08:00N 58°44' W 003°30'15 4.9
2020-Aug-08 04:56N 58°58' W 003°18'0 0.0
2020-Aug-08 03:59N 58°58' W 003°18'0 0.0
2020-Aug-08 03:26N 58°58' W 003°18'0 0.0
2020-Aug-08 02:56N 58°58' W 003°18'0 0.0
2020-Aug-08 00:59N 58°58' W 003°18'0 0.0
2020-Aug-07 23:56N 58°58' W 003°18'0 0.0
2020-Aug-07 21:59N 58°58' W 003°18'0 0.0
2020-Aug-07 19:30N 58°58' W 003°18'2211.2
2020-Aug-07 17:30N 58°37' W 003°32'9 9.3
2020-Aug-07 16:30N 58°46' W 003°30'14 5.5
2020-Aug-07 14:00N 58°58' W 003°18'7 7.4
2020-Aug-07 13:00N 58°53' W 003°28'816.3
2020-Aug-07 12:31N 58°45' W 003°30'6 3.0
2020-Aug-07 10:30N 58°51' W 003°28'815.6
2020-Aug-07 10:00N 58°57' W 003°19'16 4.5
2020-Aug-07 06:30N 58°42' W 003°30'1711.0
2020-Aug-07 04:58N 58°58' W 003°18'0 0.0
2020-Aug-07 04:28N 58°58' W 003°18'0 0.0
2020-Aug-07 03:58N 58°58' W 003°18'0 0.0
2020-Aug-07 03:28N 58°58' W 003°18'0 0.0
2020-Aug-07 00:58N 58°58' W 003°18'0 0.0
2020-Aug-06 23:28N 58°58' W 003°18'0 0.0
2020-Aug-06 21:28N 58°58' W 003°18'0 0.0
2020-Aug-06 19:58N 58°58' W 003°18'6 1.4
2020-Aug-06 16:00N 58°54' W 003°26'5 2.0
2020-Aug-06 13:31N 58°57' W 003°18'8 1.1
2020-Aug-06 06:00N 58°51' W 003°28'714.3
2020-Aug-06 05:30N 58°57' W 003°21'2 1.8
2020-Aug-06 04:28N 58°58' W 003°18'0 0.0
2020-Aug-06 03:58N 58°58' W 003°18'0 0.0
2020-Aug-06 01:58N 58°58' W 003°18'0 0.0
2020-Aug-06 01:28N 58°58' W 003°18'0 0.0
2020-Aug-05 22:28N 58°58' W 003°18'0 0.0
2020-Aug-05 19:58N 58°58' W 003°18'0 0.0
2020-Aug-05 19:30N 58°58' W 003°18'2211.2
2020-Aug-05 17:30N 58°37' W 003°32'22 6.4
2020-Aug-05 14:00N 58°58' W 003°18'7 6.8
2020-Aug-05 13:00N 58°53' W 003°27'815.3
2020-Aug-05 12:30N 58°46' W 003°29'14 4.6
2020-Aug-05 09:30N 58°58' W 003°18'17 5.8
2020-Aug-05 06:30N 58°42' W 003°30'17 8.5
2020-Aug-05 04:28N 58°58' W 003°18'0 0.0
2020-Aug-05 00:28N 58°58' W 003°18'0 0.0
2020-Aug-04 22:28N 58°58' W 003°18'0 0.0
2020-Aug-04 20:58N 58°58' W 003°18'0 0.0
2020-Aug-04 19:58N 58°58' W 003°18'22 7.4
2020-Aug-04 17:00N 58°37' W 003°31'5 0.8
2020-Aug-04 11:00N 58°42' W 003°30'1711.5
2020-Aug-04 09:30N 58°58' W 003°18'1 1.6
2020-Aug-04 09:00N 58°57' W 003°17'815.2
2020-Aug-04 08:30N 58°52' W 003°28'8 2.2
2020-Aug-04 04:56N 58°58' W 003°18'0 0.0
2020-Aug-04 03:56N 58°58' W 003°18'0 0.0
2020-Aug-04 02:59N 58°58' W 003°18'0 0.0
2020-Aug-03 22:26N 58°58' W 003°18'22 4.6
2020-Aug-03 17:30N 58°37' W 003°32'9 9.1
2020-Aug-03 16:30N 58°46' W 003°30'1313.5
2020-Aug-03 15:31N 58°58' W 003°18'7 2.8
2020-Aug-03 13:00N 58°53' W 003°28'12 5.8
2020-Aug-03 11:00N 58°41' W 003°31'1616.1
2020-Aug-03 10:00N 58°57' W 003°22'2 4.7
2020-Aug-03 09:30N 58°58' W 003°18'0 0.3
2020-Aug-03 09:00N 58°58' W 003°18'2211.2
2020-Aug-03 07:00N 58°37' W 003°32'2113.9
2020-Aug-03 05:30N 58°57' W 003°21'2 1.8
2020-Aug-03 04:28N 58°58' W 003°18'0 0.0
2020-Aug-03 03:28N 58°58' W 003°18'0 0.0
2020-Aug-02 23:58N 58°58' W 003°18'22 3.5
2020-Aug-02 17:31N 58°37' W 003°32'9 8.9
2020-Aug-02 16:30N 58°46' W 003°30'14 4.5
2020-Aug-02 13:26N 58°58' W 003°18'0 0.0
2020-Aug-02 12:59N 58°58' W 003°18'0 0.0
2020-Aug-02 12:30N 58°58' W 003°18'2211.2
2020-Aug-02 10:30N 58°37' W 003°32'0 0.0
2020-Aug-02 10:00N 58°37' W 003°32'22 6.4
2020-Aug-02 06:28N 58°58' W 003°18'0 0.0
2020-Aug-02 04:58N 58°58' W 003°18'0 0.0
2020-Aug-02 04:28N 58°58' W 003°18'0 0.0
2020-Aug-02 03:58N 58°58' W 003°18'0 0.0
2020-Aug-02 02:58N 58°58' W 003°18'0 0.0
2020-Aug-02 01:58N 58°58' W 003°18'0 0.0
2020-Aug-02 00:55N 58°58' W 003°18'0 0.0
2020-Aug-01 22:28N 58°58' W 003°18'7 1.0
2020-Aug-01 16:00N 58°53' W 003°27'7 3.3
2020-Aug-01 14:00N 58°58' W 003°18'22 9.0
2020-Aug-01 11:31N 58°37' W 003°32'2211.2
2020-Aug-01 09:30N 58°58' W 003°18'1 0.3
2020-Aug-01 05:30N 58°57' W 003°18'1 0.4
2020-Aug-01 02:58N 58°58' W 003°18'0 0.0
2020-Aug-01 02:31N 58°58' W 003°18'0 0.0
2020-Aug-01 00:28N 58°58' W 003°18'0 0.0
2020-Jul-31 23:58N 58°58' W 003°18'0 0.0
2020-Jul-31 21:28N 58°58' W 003°18'20 5.8
2020-Jul-31 17:58N 58°39' W 003°31'20 8.1
2020-Jul-31 15:30N 58°58' W 003°18'23 6.5
2020-Jul-31 12:01N 58°37' W 003°32'2110.7
2020-Jul-31 10:00N 58°57' W 003°18'16 4.7
2020-Jul-31 06:30N 58°42' W 003°31'918.7
2020-Jul-31 06:00N 58°51' W 003°28'9 8.8
2020-Jul-31 05:00N 58°58' W 003°18'0 0.0
2020-Jul-31 04:00N 58°58' W 003°18'0 0.0
2020-Jul-31 01:00N 58°58' W 003°18'0 0.0
2020-Jul-31 00:30N 58°58' W 003°18'0 0.0
2020-Jul-30 22:30N 58°58' W 003°18'0 0.0
2020-Jul-30 21:30N 58°58' W 003°18'0 0.0
2020-Jul-30 20:30N 58°58' W 003°18'0 0.0
2020-Jul-30 19:30N 58°58' W 003°18'1 0.1
2020-Jul-30 13:30N 58°57' W 003°17'8 2.7
2020-Jul-30 10:30N 58°51' W 003°28'7 4.9
2020-Jul-30 09:00N 58°57' W 003°19'815.2
2020-Jul-30 08:30N 58°51' W 003°28'1 0.3
2020-Jul-30 06:01N 58°50' W 003°29'  
Track history (hours):
 
Tides and Currents Weather Stations Pressure Air Temp Water Temp Dewpoint Dewpoint Depression Visibility Wind Speed Wind Dir Waves Ship Positions

Hamnavoe

Operator: NorthLink Orkey & Shetland Ferries Ltd

Last reported at 2020-Aug-09 04:24 UTC. Time now 2020-Aug-09 05:27 UTC.
Position N 58°58' W 003°18'.

Length 112 m; draft 4.4 m.

Type: Ship. MMSI: 235449000.

Date/timePositionNaut miles runAvg speedWind from/ knotsBaromVisibWave heightAir tempDewpointWater temp
2020-Aug-09 04:24N 58°58' W 003°18'0 0.0
2020-Aug-08 23:30N 58°58' W 003°18'0 0.0
2020-Aug-08 22:30N 58°58' W 003°18'0 0.0
2020-Aug-08 21:30N 58°58' W 003°18'22 5.6
2020-Aug-08 17:29N 58°37' W 003°32'22 7.6
2020-Aug-08 14:31N 58°58' W 003°18'8 5.1
2020-Aug-08 13:00N 58°52' W 003°28'1610.5
2020-Aug-08 11:30N 58°37' W 003°32'5 9.7
2020-Aug-08 11:00N 58°41' W 003°31'1811.8
2020-Aug-08 09:30N 58°58' W 003°18'1 1.8
2020-Aug-08 09:00N 58°57' W 003°17'1414.4
2020-Aug-08 08:00N 58°44' W 003°30'15 4.9
2020-Aug-08 04:56N 58°58' W 003°18'0 0.0
2020-Aug-08 03:59N 58°58' W 003°18'0 0.0
2020-Aug-08 03:26N 58°58' W 003°18'0 0.0
2020-Aug-08 02:56N 58°58' W 003°18'0 0.0
2020-Aug-08 00:59N 58°58' W 003°18'0 0.0
2020-Aug-07 23:56N 58°58' W 003°18'0 0.0
2020-Aug-07 21:59N 58°58' W 003°18'0 0.0
2020-Aug-07 19:30N 58°58' W 003°18'2211.2
2020-Aug-07 17:30N 58°37' W 003°32'9 9.3
2020-Aug-07 16:30N 58°46' W 003°30'14 5.5
2020-Aug-07 14:00N 58°58' W 003°18'7 7.4
2020-Aug-07 13:00N 58°53' W 003°28'816.3
2020-Aug-07 12:31N 58°45' W 003°30'6 3.0
2020-Aug-07 10:30N 58°51' W 003°28'815.6
2020-Aug-07 10:00N 58°57' W 003°19'16 4.5
2020-Aug-07 06:30N 58°42' W 003°30'1711.0
2020-Aug-07 04:58N 58°58' W 003°18'0 0.0
2020-Aug-07 04:28N 58°58' W 003°18'0 0.0
2020-Aug-07 03:58N 58°58' W 003°18'0 0.0
2020-Aug-07 03:28N 58°58' W 003°18'0 0.0
2020-Aug-07 00:58N 58°58' W 003°18'0 0.0
2020-Aug-06 23:28N 58°58' W 003°18'0 0.0
2020-Aug-06 21:28N 58°58' W 003°18'0 0.0
2020-Aug-06 19:58N 58°58' W 003°18'6 1.4
2020-Aug-06 16:00N 58°54' W 003°26'5 2.0
2020-Aug-06 13:31N 58°57' W 003°18'8 1.1
2020-Aug-06 06:00N 58°51' W 003°28'714.3
2020-Aug-06 05:30N 58°57' W 003°21'2 1.8
2020-Aug-06 04:28N 58°58' W 003°18'0 0.0
2020-Aug-06 03:58N 58°58' W 003°18'0 0.0
2020-Aug-06 01:58N 58°58' W 003°18'0 0.0
2020-Aug-06 01:28N 58°58' W 003°18'0 0.0
2020-Aug-05 22:28N 58°58' W 003°18'0 0.0
2020-Aug-05 19:58N 58°58' W 003°18'0 0.0
2020-Aug-05 19:30N 58°58' W 003°18'2211.2
2020-Aug-05 17:30N 58°37' W 003°32'22 6.4
2020-Aug-05 14:00N 58°58' W 003°18'7 6.8
2020-Aug-05 13:00N 58°53' W 003°27'815.3
2020-Aug-05 12:30N 58°46' W 003°29'14 4.6
2020-Aug-05 09:30N 58°58' W 003°18'17 5.8
2020-Aug-05 06:30N 58°42' W 003°30'17 8.5
2020-Aug-05 04:28N 58°58' W 003°18'0 0.0
2020-Aug-05 00:28N 58°58' W 003°18'0 0.0
2020-Aug-04 22:28N 58°58' W 003°18'0 0.0
2020-Aug-04 20:58N 58°58' W 003°18'0 0.0
2020-Aug-04 19:58N 58°58' W 003°18'22 7.4
2020-Aug-04 17:00N 58°37' W 003°31'5 0.8
2020-Aug-04 11:00N 58°42' W 003°30'1711.5
2020-Aug-04 09:30N 58°58' W 003°18'1 1.6
2020-Aug-04 09:00N 58°57' W 003°17'815.2
2020-Aug-04 08:30N 58°52' W 003°28'8 2.2
2020-Aug-04 04:56N 58°58' W 003°18'0 0.0
2020-Aug-04 03:56N 58°58' W 003°18'0 0.0
2020-Aug-04 02:59N 58°58' W 003°18'0 0.0
2020-Aug-03 22:26N 58°58' W 003°18'22 4.6
2020-Aug-03 17:30N 58°37' W 003°32'9 9.1
2020-Aug-03 16:30N 58°46' W 003°30'1313.5
2020-Aug-03 15:31N 58°58' W 003°18'7 2.8
2020-Aug-03 13:00N 58°53' W 003°28'12 5.8
2020-Aug-03 11:00N 58°41' W 003°31'1616.1
2020-Aug-03 10:00N 58°57' W 003°22'2 4.7
2020-Aug-03 09:30N 58°58' W 003°18'0 0.3
2020-Aug-03 09:00N 58°58' W 003°18'2211.2
2020-Aug-03 07:00N 58°37' W 003°32'2113.9
2020-Aug-03 05:30N 58°57' W 003°21'2 1.8
2020-Aug-03 04:28N 58°58' W 003°18'0 0.0
2020-Aug-03 03:28N 58°58' W 003°18'0 0.0
2020-Aug-02 23:58N 58°58' W 003°18'22 3.5
2020-Aug-02 17:31N 58°37' W 003°32'9 8.9
2020-Aug-02 16:30N 58°46' W 003°30'14 4.5
2020-Aug-02 13:26N 58°58' W 003°18'0 0.0
2020-Aug-02 12:59N 58°58' W 003°18'0 0.0
2020-Aug-02 12:30N 58°58' W 003°18'2211.2
2020-Aug-02 10:30N 58°37' W 003°32'0 0.0
2020-Aug-02 10:00N 58°37' W 003°32'22 6.4
2020-Aug-02 06:28N 58°58' W 003°18'0 0.0
2020-Aug-02 04:58N 58°58' W 003°18'0 0.0
2020-Aug-02 04:28N 58°58' W 003°18'0 0.0
2020-Aug-02 03:58N 58°58' W 003°18'0 0.0
2020-Aug-02 02:58N 58°58' W 003°18'0 0.0
2020-Aug-02 01:58N 58°58' W 003°18'0 0.0
2020-Aug-02 00:55N 58°58' W 003°18'0 0.0
2020-Aug-01 22:28N 58°58' W 003°18'7 1.0
2020-Aug-01 16:00N 58°53' W 003°27'7 3.3
2020-Aug-01 14:00N 58°58' W 003°18'22 9.0
2020-Aug-01 11:31N 58°37' W 003°32'2211.2
2020-Aug-01 09:30N 58°58' W 003°18'1 0.3
2020-Aug-01 05:30N 58°57' W 003°18'1 0.4
2020-Aug-01 02:58N 58°58' W 003°18'0 0.0
2020-Aug-01 02:31N 58°58' W 003°18'0 0.0
2020-Aug-01 00:28N 58°58' W 003°18'0 0.0
2020-Jul-31 23:58N 58°58' W 003°18'0 0.0
2020-Jul-31 21:28N 58°58' W 003°18'20 5.8
2020-Jul-31 17:58N 58°39' W 003°31'20 8.1
2020-Jul-31 15:30N 58°58' W 003°18'23 6.5
2020-Jul-31 12:01N 58°37' W 003°32'2110.7
2020-Jul-31 10:00N 58°57' W 003°18'16 4.7
2020-Jul-31 06:30N 58°42' W 003°31'918.7
2020-Jul-31 06:00N 58°51' W 003°28'9 8.8
2020-Jul-31 05:00N 58°58' W 003°18'0 0.0
2020-Jul-31 04:00N 58°58' W 003°18'0 0.0
2020-Jul-31 01:00N 58°58' W 003°18'0 0.0
2020-Jul-31 00:30N 58°58' W 003°18'0 0.0
2020-Jul-30 22:30N 58°58' W 003°18'0 0.0
2020-Jul-30 21:30N 58°58' W 003°18'0 0.0
2020-Jul-30 20:30N 58°58' W 003°18'0 0.0
2020-Jul-30 19:30N 58°58' W 003°18'1 0.1
2020-Jul-30 13:30N 58°57' W 003°17'8 2.7
2020-Jul-30 10:30N 58°51' W 003°28'7 4.9
2020-Jul-30 09:00N 58°57' W 003°19'815.2
2020-Jul-30 08:30N 58°51' W 003°28'1 0.3
2020-Jul-30 06:01N 58°50' W 003°29'  

Dump ship's entire track history